createdAt,value
2023-04-11T00:00:30.083Z,100342.34
2023-04-11T00:03:01.731Z,100331.91
2023-04-11T00:05:31.298Z,100320.41
2023-04-11T00:07:57.884Z,100308.16
2023-04-11T00:10:24.498Z,100292.78
2023-04-11T00:12:56.329Z,100277.91
2023-04-11T00:15:26.655Z,100269.31
2023-04-11T00:17:54.803Z,100264.88
2023-04-11T00:20:21.691Z,100276.88
2023-04-11T00:22:48.206Z,100287.00
2023-04-11T00:25:15.262Z,100292.22
2023-04-11T00:27:41.702Z,100273.97
2023-04-11T00:30:08.412Z,100271.88
2023-04-11T00:32:34.872Z,100287.25
2023-04-11T00:35:01.820Z,100280.75
2023-04-11T00:37:28.386Z,100271.09
2023-04-11T00:39:56.139Z,100280.22
2023-04-11T00:42:22.991Z,100279.66
2023-04-11T00:44:50.757Z,100282.53
2023-04-11T00:47:18.532Z,100290.34
2023-04-11T00:49:45.981Z,100268.44
2023-04-11T00:52:13.631Z,100267.41
2023-04-11T00:54:40.299Z,100257.25
2023-04-11T00:57:08.176Z,100245.78
2023-04-11T00:59:35.151Z,100229.59
2023-04-11T01:02:01.997Z,100210.06
2023-04-11T01:04:29.635Z,100232.22
2023-04-11T01:07:05.765Z,100211.88
2023-04-11T01:09:34.342Z,100176.44
2023-04-11T01:12:02.963Z,100153.78
2023-04-11T01:14:29.880Z,100152.19
2023-04-11T01:16:57.238Z,100179.78
2023-04-11T01:19:29.205Z,100209.75
2023-04-11T01:21:57.775Z,100196.72
2023-04-11T01:24:24.810Z,100184.97
2023-04-11T01:26:52.065Z,100183.94
2023-04-11T01:29:19.133Z,100196.97
2023-04-11T01:31:46.341Z,100204.53
2023-04-11T01:34:14.709Z,100220.91
2023-04-11T01:36:42.400Z,100220.38
2023-04-11T01:39:09.213Z,100225.34
2023-04-11T01:41:36.369Z,100231.06
2023-04-11T01:44:04.243Z,100236.50
2023-04-11T01:46:31.117Z,100240.19
2023-04-11T01:49:00.296Z,100228.72
2023-04-11T01:51:27.172Z,100226.09
2023-04-11T01:53:54.262Z,100222.44
2023-04-11T01:56:20.826Z,100231.81
2023-04-11T01:58:47.339Z,100229.47
2023-04-11T02:01:17.636Z,100229.97
2023-04-11T02:03:44.123Z,100231.25
2023-04-11T02:06:10.645Z,100232.31
2023-04-11T02:08:37.092Z,100232.81
2023-04-11T02:11:03.635Z,100233.59
2023-04-11T02:13:30.206Z,100226.31
2023-04-11T02:15:56.708Z,100220.03
2023-04-11T02:18:25.983Z,100223.97
2023-04-11T02:20:52.676Z,100209.88
2023-04-11T02:23:19.138Z,100210.16
2023-04-11T02:25:46.466Z,100191.09
2023-04-11T02:28:12.898Z,100204.38
2023-04-11T02:30:39.397Z,100202.59
2023-04-11T02:33:05.886Z,100186.69
2023-04-11T02:35:32.887Z,100190.88
2023-04-11T02:38:01.048Z,100185.66
2023-04-11T02:40:29.865Z,100178.88
2023-04-11T02:42:56.272Z,100184.59
2023-04-11T02:45:22.811Z,100179.66
2023-04-11T02:47:49.322Z,100176.00
2023-04-11T02:50:16.528Z,100169.72
2023-04-11T02:52:49.635Z,100167.66
2023-04-11T02:55:19.921Z,100163.75
2023-04-11T02:57:46.355Z,100158.00
2023-04-11T03:00:16.611Z,100149.16
2023-04-11T03:02:50.239Z,100147.59
2023-04-11T03:05:20.962Z,100148.91
2023-04-11T03:07:50.214Z,100145.75
2023-04-11T03:10:16.799Z,100140.28
2023-04-11T03:12:43.568Z,100144.72
2023-04-11T03:15:11.343Z,100140.28
2023-04-11T03:17:37.874Z,100153.53
2023-04-11T03:20:07.181Z,100164.19
2023-04-11T03:22:34.210Z,100169.16
2023-04-11T03:25:00.849Z,100217.03
2023-04-11T03:27:27.317Z,100207.63
2023-04-11T03:29:58.425Z,100230.75
2023-04-11T03:32:37.415Z,100216.16
2023-04-11T03:35:04.184Z,100195.88
2023-04-11T03:37:30.641Z,100188.06
2023-04-11T03:39:57.058Z,100193.00
2023-04-11T03:42:23.787Z,100188.56
2023-04-11T03:44:55.265Z,100176.59
2023-04-11T03:47:24.533Z,100159.44
2023-04-11T03:49:51.269Z,100156.50
2023-04-11T03:52:18.080Z,100171.06
2023-04-11T03:54:47.895Z,100166.94
2023-04-11T03:57:15.530Z,100170.00
2023-04-11T03:59:42.072Z,100183.25
2023-04-11T04:02:12.090Z,100181.94
2023-04-11T04:04:47.132Z,100184.00
2023-04-11T04:07:43.147Z,100175.13
2023-04-11T04:10:21.453Z,100169.16
2023-04-11T04:12:52.472Z,100180.03
2023-04-11T04:15:32.891Z,100170.91
2023-04-11T04:18:00.841Z,100187.31
2023-04-11T04:20:41.568Z,100178.72
2023-04-11T04:23:08.480Z,100173.22
2023-04-11T04:25:52.676Z,100161.25
2023-04-11T04:28:25.922Z,100162.03
2023-04-11T04:30:54.555Z,100166.69
2023-04-11T04:35:58.028Z,100174.72
2023-04-11T04:38:28.888Z,100170.00
2023-04-11T04:40:58.939Z,100170.25
2023-04-11T04:43:27.230Z,100182.47
2023-04-11T04:46:01.889Z,100189.19
2023-04-11T04:48:39.397Z,100201.13
2023-04-11T04:51:06.921Z,100200.09
2023-04-11T04:53:38.500Z,100196.91
2023-04-11T04:56:06.338Z,100193.78
2023-04-11T04:58:37.294Z,100195.59
2023-04-11T05:01:09.112Z,100203.63
2023-04-11T05:03:38.585Z,100200.50
2023-04-11T05:06:09.673Z,100204.38
2023-04-11T05:08:37.296Z,100202.81
2023-04-11T05:11:06.273Z,100193.94
2023-04-11T05:13:34.314Z,100197.31
2023-04-11T05:16:02.332Z,100196.00
2023-04-11T05:18:30.528Z,100192.31
2023-04-11T05:20:57.511Z,100198.53
2023-04-11T05:23:29.133Z,100197.50
2023-04-11T05:25:59.323Z,100193.31
2023-04-11T05:28:26.172Z,100187.06
2023-04-11T05:30:53.382Z,100194.84
2023-04-11T05:33:19.930Z,100196.66
2023-04-11T05:35:46.420Z,100200.28
2023-04-11T05:38:12.909Z,100195.88
2023-04-11T05:40:39.803Z,100202.88
2023-04-11T05:43:06.417Z,100199.75
2023-04-11T05:45:32.931Z,100204.66
2023-04-11T05:47:59.461Z,100203.88
2023-04-11T05:50:26.110Z,100203.31
2023-04-11T05:52:52.547Z,100209.00
2023-04-11T05:55:19.077Z,100212.38
2023-04-11T05:57:45.505Z,100211.31
2023-04-11T06:00:13.117Z,100205.88
2023-04-11T06:02:41.969Z,100208.47
2023-04-11T06:05:11.942Z,100206.88
2023-04-11T06:07:39.384Z,100218.31
2023-04-11T06:10:07.497Z,100222.19
2023-04-11T06:12:33.948Z,100217.78
2023-04-11T06:15:00.641Z,100230.25
2023-04-11T06:17:27.109Z,100229.19
2023-04-11T06:19:53.741Z,100238.03
2023-04-11T06:22:20.212Z,100247.13
2023-04-11T06:24:47.616Z,100252.06
2023-04-11T06:27:14.329Z,100244.75
2023-04-11T06:29:43.489Z,100245.53
2023-04-11T06:32:11.945Z,100244.75
2023-04-11T06:34:39.407Z,100239.81
2023-04-11T06:37:07.235Z,100232.56
2023-04-11T06:39:34.521Z,100226.03
2023-04-11T06:42:02.073Z,100231.75
2023-04-11T06:44:31.685Z,100234.59
2023-04-11T06:46:59.120Z,100218.78
2023-04-11T06:49:26.883Z,100227.63
2023-04-11T06:51:54.597Z,100228.63
2023-04-11T06:54:21.963Z,100235.91
2023-04-11T06:56:50.652Z,100237.47
2023-04-11T06:59:19.659Z,100232.75
2023-04-11T07:01:46.512Z,100238.47
2023-04-11T07:04:13.007Z,100247.34
2023-04-11T07:06:39.556Z,100248.13
2023-04-11T07:09:06.346Z,100243.19
2023-04-11T07:11:33.502Z,100248.88
2023-04-11T07:14:00.557Z,100252.56
2023-04-11T07:16:27.304Z,100244.75
2023-04-11T07:18:54.845Z,100238.28
2023-04-11T07:21:21.614Z,100250.47
2023-04-11T07:23:48.266Z,100239.03
2023-04-11T07:26:16.806Z,100234.59
2023-04-11T07:28:44.945Z,100253.59
2023-04-11T07:31:12.566Z,100255.19
2023-04-11T07:33:39.575Z,100253.59
2023-04-11T07:36:07.100Z,100262.47
2023-04-11T07:38:34.064Z,100268.19
2023-04-11T07:41:02.969Z,100268.19
2023-04-11T07:43:29.704Z,100272.31
2023-04-11T07:45:57.462Z,100272.31
2023-04-11T07:48:25.240Z,100278.03
2023-04-11T07:50:52.979Z,100269.19
2023-04-11T07:53:19.854Z,100285.84
2023-04-11T07:55:46.300Z,100282.19
2023-04-11T07:58:12.869Z,100296.47
2023-04-11T08:00:39.451Z,100277.28
2023-04-11T08:03:07.639Z,100283.75
2023-04-11T08:05:35.706Z,100291.06
2023-04-11T08:08:03.550Z,100288.19
2023-04-11T08:10:30.227Z,100297.53
2023-04-11T08:12:58.450Z,100286.13
2023-04-11T08:15:25.991Z,100282.47
2023-04-11T08:17:56.059Z,100304.03
2023-04-11T08:20:24.216Z,100297.31
2023-04-11T08:22:50.838Z,100287.47
2023-04-11T08:25:22.748Z,100299.19
2023-04-11T08:27:50.011Z,100292.19
2023-04-11T08:30:17.282Z,100291.19
2023-04-11T08:32:44.056Z,100296.41
2023-04-11T08:35:10.720Z,100307.34
2023-04-11T08:37:37.142Z,100297.44
2023-04-11T08:40:06.801Z,100304.75
2023-04-11T08:42:34.204Z,100313.09
2023-04-11T08:45:08.165Z,100311.81
2023-04-11T08:47:35.989Z,100311.81
2023-04-11T08:50:03.657Z,100303.53
2023-04-11T08:52:31.457Z,100310.50
2023-04-11T08:54:57.917Z,100306.66
2023-04-11T08:57:31.284Z,100310.31
2023-04-11T09:00:02.151Z,100304.09
2023-04-11T09:02:28.708Z,100298.38
2023-04-11T09:04:57.628Z,100307.22
2023-04-11T09:07:24.289Z,100303.88
2023-04-11T09:09:51.041Z,100304.66
2023-04-11T09:12:21.439Z,100308.59
2023-04-11T09:14:47.845Z,100312.50
2023-04-11T09:17:14.559Z,100313.31
2023-04-11T09:19:46.835Z,100307.09
2023-04-11T09:22:15.637Z,100305.28
2023-04-11T09:24:42.843Z,100314.13
2023-04-11T09:27:10.836Z,100305.88
2023-04-11T09:29:39.713Z,100304.56
2023-04-11T09:32:06.692Z,100306.16
2023-04-11T09:34:34.746Z,100299.44
2023-04-11T09:37:02.064Z,100301.00
2023-04-11T09:39:30.127Z,100317.13
2023-04-11T09:41:57.525Z,100308.53
2023-04-11T09:44:38.457Z,100297.09
2023-04-11T09:47:05.140Z,100310.63
2023-04-11T09:49:34.157Z,100321.56
2023-04-11T09:52:01.943Z,100313.25
2023-04-11T09:54:29.184Z,100348.09
2023-04-11T09:56:57.068Z,100351.16
2023-04-11T09:59:26.683Z,100350.66
2023-04-11T10:01:53.342Z,100355.63
2023-04-11T10:04:20.418Z,100351.16
2023-04-11T10:07:02.069Z,100337.31
2023-04-11T10:09:31.207Z,100351.63
2023-04-11T10:11:57.705Z,100360.19
2023-04-11T10:14:39.721Z,100358.00
2023-04-11T10:17:21.186Z,100376.47
2023-04-11T10:19:50.541Z,100370.47
2023-04-11T10:22:49.578Z,100374.25
2023-04-11T10:25:24.500Z,100379.97
2023-04-11T10:27:53.555Z,100382.34
2023-04-11T10:30:40.743Z,100394.75
2023-04-11T10:33:14.943Z,100401.47
2023-04-11T10:36:02.882Z,100403.28
2023-04-11T10:38:49.957Z,100397.47
2023-04-11T10:41:22.562Z,100396.97
2023-04-11T10:43:49.708Z,100387.34
2023-04-11T10:46:20.822Z,100383.41
2023-04-11T10:49:07.542Z,100385.19
2023-04-11T10:51:34.348Z,100384.13
2023-04-11T10:54:01.979Z,100398.91
2023-04-11T10:56:54.180Z,100398.03
2023-04-11T10:59:34.170Z,100385.03
2023-04-11T11:02:02.330Z,100394.91
2023-04-11T11:04:39.395Z,100401.63
2023-04-11T11:07:07.841Z,100407.34
2023-04-11T11:09:34.987Z,100402.13
2023-04-11T11:12:12.684Z,100397.88
2023-04-11T11:14:41.106Z,100400.47
2023-04-11T11:17:08.835Z,100400.47
2023-04-11T11:19:35.993Z,100406.38
2023-04-11T11:22:06.698Z,100411.56
2023-04-11T11:24:33.214Z,100425.09
2023-04-11T11:26:59.603Z,100417.78
2023-04-11T11:29:40.137Z,100426.84
2023-04-11T11:32:07.113Z,100424.50
2023-04-11T11:34:34.849Z,100430.03
2023-04-11T11:37:07.054Z,100432.88
2023-04-11T11:39:34.688Z,100428.72
2023-04-11T11:42:01.621Z,100436.50
2023-04-11T11:44:30.002Z,100436.00
2023-04-11T11:47:12.267Z,100442.31
2023-04-11T11:49:54.675Z,100460.53
2023-04-11T11:52:34.780Z,100445.75
2023-04-11T11:55:03.191Z,100439.03
2023-04-11T11:57:29.759Z,100440.63
2023-04-11T11:59:57.802Z,100453.91
2023-04-11T12:02:26.099Z,100458.59
2023-04-11T12:04:57.931Z,100459.91
2023-04-11T12:07:24.603Z,100494.78
2023-04-11T12:10:01.102Z,100523.34
2023-04-11T12:12:38.379Z,100510.63
2023-04-11T12:15:22.078Z,100513.50
2023-04-11T12:17:52.804Z,100495.56
2023-04-11T12:20:23.942Z,100514.78
2023-04-11T12:22:52.150Z,100524.66
2023-04-11T12:25:20.682Z,100531.34
2023-04-11T12:27:48.512Z,100529.00
2023-04-11T12:30:15.322Z,100528.38
2023-04-11T12:32:42.893Z,100529.69
2023-04-11T12:35:10.560Z,100529.88
2023-04-11T12:37:37.115Z,100522.00
2023-04-11T12:40:10.995Z,100527.72
2023-04-11T12:42:49.534Z,100525.06
2023-04-11T12:45:22.175Z,100517.97
2023-04-11T12:47:48.961Z,100515.13
2023-04-11T12:50:15.411Z,100511.97
2023-04-11T12:52:41.936Z,100513.56
2023-04-11T12:55:09.369Z,100518.97
2023-04-11T12:57:36.536Z,100510.38
2023-04-11T13:00:11.486Z,100522.31
2023-04-11T13:02:43.200Z,100529.88
2023-04-11T13:05:11.954Z,100529.88
2023-04-11T13:07:39.026Z,100533.25
2023-04-11T13:10:07.724Z,100537.19
2023-04-11T13:12:39.589Z,100529.88
2023-04-11T13:15:07.918Z,100546.81
2023-04-11T13:17:34.619Z,100567.13
2023-04-11T13:20:01.298Z,100562.69
2023-04-11T13:22:27.753Z,100561.44
2023-04-11T13:24:54.196Z,100559.34
2023-04-11T13:27:22.014Z,100564.78
2023-04-11T13:29:48.543Z,100575.22
2023-04-11T13:32:14.972Z,100566.16
2023-04-11T13:34:41.449Z,100573.41
2023-04-11T13:37:07.935Z,100571.38
2023-04-11T13:39:34.471Z,100579.94
2023-04-11T13:42:00.881Z,100567.72
2023-04-11T13:44:27.316Z,100582.00
2023-04-11T13:46:53.737Z,100580.13
2023-04-11T13:49:20.261Z,100581.72
2023-04-11T13:51:47.133Z,100589.00
2023-04-11T13:54:13.993Z,100593.91
2023-04-11T13:56:41.113Z,100600.31
2023-04-11T13:59:07.684Z,100596.97
2023-04-11T14:01:34.601Z,100590.97
2023-04-11T14:04:01.574Z,100606.72
2023-04-11T14:06:28.377Z,100608.09
2023-04-11T14:08:55.005Z,100606.22
2023-04-11T14:11:21.575Z,100620.81
2023-04-11T14:13:48.809Z,100617.94
2023-04-11T14:16:15.700Z,100611.94
2023-04-11T14:18:42.244Z,100614.81
2023-04-11T14:21:08.783Z,100621.28
2023-04-11T14:23:35.718Z,100624.63
2023-04-11T14:26:02.148Z,100622.88
2023-04-11T14:28:28.616Z,100618.44
2023-04-11T14:30:56.091Z,100630.16
2023-04-11T14:33:23.104Z,100620.03
2023-04-11T14:35:50.970Z,100618.72
2023-04-11T14:38:17.485Z,100626.81
2023-04-11T14:40:44.350Z,100630.47
2023-04-11T14:43:11.262Z,100622.88
2023-04-11T14:45:37.813Z,100639.53
2023-04-11T14:48:04.794Z,100642.97
2023-04-11T14:50:31.340Z,100647.41
2023-04-11T14:52:57.921Z,100673.13
2023-04-11T14:55:24.515Z,100703.94
2023-04-11T14:57:55.699Z,100712.22
2023-04-11T15:00:22.792Z,100701.28
2023-04-11T15:02:56.094Z,100709.56
2023-04-11T15:05:23.444Z,100702.75
2023-04-11T15:07:52.152Z,100706.56
2023-04-11T15:10:21.315Z,100703.41
2023-04-11T15:12:48.107Z,100698.69
2023-04-11T15:15:15.751Z,100698.09
2023-04-11T15:17:47.253Z,100692.06
2023-04-11T15:20:14.693Z,100681.31
2023-04-11T15:22:42.872Z,100683.41
2023-04-11T15:25:12.136Z,100671.84
2023-04-11T15:27:39.103Z,100679.16
2023-04-11T15:30:06.490Z,100680.41
2023-04-11T15:32:33.655Z,100680.13
2023-04-11T15:35:00.299Z,100687.72
2023-04-11T15:37:27.096Z,100706.13
2023-04-11T15:39:53.941Z,100700.41
2023-04-11T15:42:20.380Z,100708.97
2023-04-11T15:44:46.842Z,100711.03
2023-04-11T15:47:13.511Z,100718.34
2023-04-11T15:49:40.023Z,100720.38
2023-04-11T15:52:07.107Z,100724.06
2023-04-11T15:54:33.797Z,100720.38
2023-04-11T15:57:00.369Z,100727.41
2023-04-11T15:59:26.877Z,100723.25
2023-04-11T16:01:53.460Z,100717.53
2023-04-11T16:04:20.789Z,100728.94
2023-04-11T16:06:47.410Z,100725.81
2023-04-11T16:09:13.858Z,100714.69
2023-04-11T16:11:40.807Z,100717.53
2023-04-11T16:14:07.349Z,100713.13
2023-04-11T16:16:34.026Z,100708.47
2023-04-11T16:19:00.648Z,100720.72
2023-04-11T16:21:27.453Z,100717.84
2023-04-11T16:23:54.859Z,100734.66
2023-04-11T16:26:21.630Z,100745.13
2023-04-11T16:28:48.839Z,100743.56
2023-04-11T16:31:21.807Z,100744.34
2023-04-11T16:33:48.388Z,100741.97
2023-04-11T16:36:17.022Z,100742.75
2023-04-11T16:38:43.878Z,100744.34
2023-04-11T16:41:10.337Z,100735.97
2023-04-11T16:43:37.062Z,100749.84
2023-04-11T16:46:04.036Z,100748.59
2023-04-11T16:48:31.514Z,100740.03
2023-04-11T16:50:58.005Z,100746.03
2023-04-11T16:53:24.565Z,100739.34
2023-04-11T16:55:52.561Z,100759.97
2023-04-11T16:58:19.288Z,100748.69
2023-04-11T17:00:46.819Z,100749.50
2023-04-11T17:03:13.452Z,100744.88
2023-04-11T17:05:40.768Z,100752.66
2023-04-11T17:08:07.353Z,100755.81
2023-04-11T17:10:33.948Z,100749.31
2023-04-11T17:13:00.794Z,100753.28
2023-04-11T17:15:27.429Z,100758.97
2023-04-11T17:17:53.923Z,100760.25
2023-04-11T17:20:22.866Z,100751.69
2023-04-11T17:22:49.653Z,100755.81
2023-04-11T17:25:16.804Z,100756.28
2023-04-11T17:27:43.418Z,100758.06
2023-04-11T17:30:10.196Z,100768.19
2023-04-11T17:32:38.036Z,100768.69
2023-04-11T17:35:06.672Z,100762.50
2023-04-11T17:37:33.967Z,100761.91
2023-04-11T17:40:00.767Z,100766.78
2023-04-11T17:42:27.271Z,100761.09
2023-04-11T17:44:55.756Z,100759.72
2023-04-11T17:47:23.757Z,100781.56
2023-04-11T17:49:50.509Z,100769.84
2023-04-11T17:52:17.129Z,100772.09
2023-04-11T17:54:43.670Z,100782.22
2023-04-11T17:57:10.119Z,100780.19
2023-04-11T17:59:36.685Z,100776.22
2023-04-11T18:02:03.282Z,100776.22
2023-04-11T18:04:30.054Z,100780.34
2023-04-11T18:06:58.175Z,100777.19
2023-04-11T18:09:27.427Z,100789.09
2023-04-11T18:11:54.039Z,100794.03
2023-04-11T18:14:20.614Z,100796.59
2023-04-11T18:16:47.422Z,100797.84
2023-04-11T18:19:13.930Z,100798.34
2023-04-11T18:21:40.998Z,100795.97
2023-04-11T18:24:07.637Z,100793.59
2023-04-11T18:26:35.413Z,100798.50
2023-04-11T18:29:01.855Z,100804.72
2023-04-11T18:31:28.454Z,100799.19
2023-04-11T18:33:55.445Z,100797.59
2023-04-11T18:36:22.586Z,100801.72
2023-04-11T18:38:49.530Z,100798.84
2023-04-11T18:41:17.612Z,100801.41
2023-04-11T18:43:44.933Z,100795.56
2023-04-11T18:46:11.533Z,100795.06
2023-04-11T18:48:38.192Z,100796.56
2023-04-11T18:51:05.079Z,100796.56
2023-04-11T18:53:31.820Z,100792.09
2023-04-11T18:56:02.828Z,100797.50
2023-04-11T18:58:31.828Z,100790.41
2023-04-11T19:01:03.617Z,100805.16
2023-04-11T19:03:36.702Z,100805.81
2023-04-11T19:06:03.767Z,100798.03
2023-04-11T19:08:30.345Z,100789.31
2023-04-11T19:10:56.822Z,100797.38
2023-04-11T19:13:23.320Z,100802.50
2023-04-11T19:15:49.867Z,100793.63
2023-04-11T19:18:16.661Z,100794.59
2023-04-11T19:20:43.632Z,100791.41
2023-04-11T19:23:10.151Z,100792.34
2023-04-11T19:25:36.937Z,100786.03
2023-04-11T19:28:03.467Z,100783.66
2023-04-11T19:30:30.006Z,100778.44
2023-04-11T19:32:57.532Z,100782.25
2023-04-11T19:35:25.217Z,100772.56
2023-04-11T19:37:52.008Z,100767.06
2023-04-11T19:40:18.786Z,100770.06
2023-04-11T19:42:45.467Z,100778.63
2023-04-11T19:45:12.269Z,100774.66
2023-04-11T19:47:40.627Z,100775.63
2023-04-11T19:50:12.028Z,100769.00
2023-04-11T19:52:39.359Z,100765.03
2023-04-11T19:55:06.513Z,100771.22
2023-04-11T19:57:33.848Z,100772.97
2023-04-11T20:00:00.515Z,100770.59
2023-04-11T20:02:27.246Z,100770.75
2023-04-11T20:04:56.114Z,100766.81
2023-04-11T20:07:23.020Z,100759.53
2023-04-11T20:09:49.680Z,100751.63
2023-04-11T20:12:16.129Z,100755.75
2023-04-11T20:14:43.841Z,100761.91
2023-04-11T20:17:10.410Z,100759.22
2023-04-11T20:19:39.524Z,100767.47
2023-04-11T20:22:10.748Z,100762.72
2023-04-11T20:24:37.211Z,100771.44
2023-04-11T20:27:03.800Z,100771.91
2023-04-11T20:29:32.935Z,100763.03
2023-04-11T20:31:59.640Z,100762.91
2023-04-11T20:34:26.141Z,100758.94
2023-04-11T20:36:52.689Z,100764.63
2023-04-11T20:39:19.288Z,100751.34
2023-04-11T20:41:45.872Z,100754.66
2023-04-11T20:44:12.316Z,100749.13
2023-04-11T20:46:39.911Z,100744.38
2023-04-11T20:49:06.905Z,100746.91
2023-04-11T20:51:34.060Z,100744.53
2023-04-11T20:54:00.714Z,100745.19
2023-04-11T20:56:27.209Z,100756.59
2023-04-11T20:58:53.785Z,100748.97
2023-04-11T21:01:20.285Z,100742.16
2023-04-11T21:03:48.195Z,100748.34
2023-04-11T21:06:14.863Z,100735.53
2023-04-11T21:08:41.328Z,100735.53
2023-04-11T21:11:08.222Z,100729.22
2023-04-11T21:13:34.836Z,100724.78
2023-04-11T21:16:01.425Z,100722.56
2023-04-11T21:18:28.960Z,100721.91
2023-04-11T21:20:55.528Z,100732.03
2023-04-11T21:23:22.174Z,100735.84
2023-04-11T21:25:48.672Z,100730.59
2023-04-11T21:28:15.287Z,100717.78
2023-04-11T21:30:42.390Z,100730.78
2023-04-11T21:33:10.334Z,100724.13
2023-04-11T21:35:36.891Z,100731.56
2023-04-11T21:38:03.406Z,100729.50
2023-04-11T21:40:30.563Z,100731.22
2023-04-11T21:42:57.098Z,100727.28
2023-04-11T21:45:23.715Z,100727.91
2023-04-11T21:47:53.244Z,100723.78
2023-04-11T21:50:19.812Z,100727.25
2023-04-11T21:52:46.796Z,100717.13
2023-04-11T21:55:14.600Z,100726.59
2023-04-11T21:57:41.584Z,100730.41
2023-04-11T22:00:10.979Z,100726.44
2023-04-11T22:02:41.329Z,100720.91
2023-04-11T22:05:12.547Z,100721.38
2023-04-11T22:07:48.329Z,100720.25
2023-04-11T22:10:22.140Z,100708.38
2023-04-11T22:12:48.957Z,100717.72
2023-04-11T22:15:18.121Z,100719.75
2023-04-11T22:17:50.434Z,100710.91
2023-04-11T22:20:18.485Z,100711.38
2023-04-11T22:22:45.170Z,100700.16
2023-04-11T22:25:12.302Z,100699.00
2023-04-11T22:27:39.066Z,100699.94
2023-04-11T22:30:07.097Z,100703.25
2023-04-11T22:32:34.191Z,100697.25
2023-04-11T22:35:01.208Z,100700.25
2023-04-11T22:37:27.830Z,100687.44
2023-04-11T22:39:54.341Z,100693.28
2023-04-11T22:42:20.923Z,100690.09
2023-04-11T22:44:47.514Z,100696.28
2023-04-11T22:47:16.252Z,100712.84
2023-04-11T22:49:44.788Z,100699.25
2023-04-11T22:52:15.183Z,100700.53
2023-04-11T22:54:42.777Z,100698.16
2023-04-11T22:57:09.649Z,100690.56
2023-04-11T22:59:36.766Z,100689.88
2023-04-11T23:02:03.402Z,100695.09
2023-04-11T23:04:31.562Z,100676.97
2023-04-11T23:06:58.310Z,100687.19
2023-04-11T23:09:25.056Z,100682.75
2023-04-11T23:11:52.167Z,100683.69
2023-04-11T23:14:20.889Z,100679.28
2023-04-11T23:16:47.494Z,100675.78
2023-04-11T23:19:14.097Z,100665.34
2023-04-11T23:21:41.050Z,100679.56
2023-04-11T23:24:07.636Z,100667.09
2023-04-11T23:26:34.194Z,100669.13
2023-04-11T23:29:02.556Z,100660.28
2023-04-11T23:31:30.979Z,100657.59
2023-04-11T23:33:57.671Z,100658.50
2023-04-11T23:36:24.263Z,100653.63
2023-04-11T23:38:50.769Z,100648.22
2023-04-11T23:41:17.331Z,100655.00
2023-04-11T23:43:43.835Z,100640.97
2023-04-11T23:46:10.969Z,100640.97
2023-04-11T23:48:37.582Z,100640.63
2023-04-11T23:51:04.318Z,100635.56
2023-04-11T23:53:31.766Z,100636.34
2023-04-11T23:55:58.369Z,100625.16
2023-04-11T23:58:24.885Z,100631.59
